Time;durP1;ratioP1;P1;durP2;ratioP2;P2;SDS_P1;SDS_P2;PMS_P1;PMS_P2;Temp;Humidity;BMP_temperature;BMP_pressure;BME280_temperature;BME280_humidity;BME280_pressure;Samples;Min_cycle;Max_cycle;Signal;HPM_P1;HPM_P2
2021/11/25 00:01:32;;;;;;;5.60;5.10;;;7.30;99.90;;;;;;5006021;28;20332;-76
2021/11/25 00:03:59;;;;;;;6.20;4.83;;;7.30;99.90;;;;;;5006125;28;20262;-77
2021/11/25 00:06:26;;;;;;;5.50;5.00;;;7.20;99.90;;;;;;5006003;28;20209;-77
2021/11/25 00:08:53;;;;;;;5.87;5.30;;;7.20;99.90;;;;;;5005946;28;20234;-77
2021/11/25 00:11:20;;;;;;;5.20;4.80;;;7.20;99.90;;;;;;5006137;28;20217;-77
2021/11/25 00:13:48;;;;;;;5.30;4.90;;;7.20;99.90;;;;;;5005892;28;20240;-77
2021/11/25 00:16:15;;;;;;;5.23;4.77;;;7.20;99.90;;;;;;5005726;28;20301;-75
2021/11/25 00:18:42;;;;;;;5.87;5.37;;;7.20;99.90;;;;;;5005857;28;20304;-75
2021/11/25 00:21:10;;;;;;;5.47;4.63;;;7.20;99.90;;;;;;5005764;28;20248;-75
2021/11/25 00:23:37;;;;;;;5.83;5.33;;;7.20;99.90;;;;;;5005623;28;20664;-75
2021/11/25 00:26:04;;;;;;;5.60;5.10;;;7.20;99.90;;;;;;5006119;28;20240;-76
2021/11/25 00:28:32;;;;;;;5.13;4.73;;;7.20;99.90;;;;;;5005764;28;20237;-76
2021/11/25 00:31:01;;;;;;;5.23;4.83;;;7.20;99.90;;;;;;5005779;28;20228;-75
2021/11/25 00:33:28;;;;;;;5.67;5.17;;;7.20;99.90;;;;;;5005729;28;20232;-76
2021/11/25 00:35:55;;;;;;;5.73;5.27;;;7.20;99.90;;;;;;5005880;28;20305;-75
2021/11/25 00:38:22;;;;;;;5.47;5.07;;;7.20;99.90;;;;;;5005637;28;20225;-75
2021/11/25 00:40:49;;;;;;;6.20;5.70;;;7.20;99.90;;;;;;5005889;28;20313;-75
2021/11/25 00:43:16;;;;;;;6.33;5.73;;;7.20;99.90;;;;;;5004649;28;20786;-75
2021/11/25 00:45:44;;;;;;;5.63;5.13;;;7.20;99.90;;;;;;5005465;28;20373;-75
2021/11/25 00:48:12;;;;;;;6.17;5.37;;;7.20;99.90;;;;;;5005632;28;20245;-75
2021/11/25 00:50:39;;;;;;;5.47;4.97;;;7.20;99.90;;;;;;5005176;28;20612;-75
2021/11/25 00:53:06;;;;;;;5.33;4.83;;;7.10;99.90;;;;;;5005727;28;20264;-74
2021/11/25 00:55:33;;;;;;;5.20;4.80;;;7.10;99.90;;;;;;5005319;28;20293;-75
2021/11/25 00:58:00;;;;;;;5.33;4.93;;;7.10;99.90;;;;;;5005326;28;20300;-74
2021/11/25 01:00:27;;;;;;;4.80;4.50;;;7.10;99.90;;;;;;5005326;28;20284;-75
2021/11/25 01:02:54;;;;;;;5.27;4.77;;;7.10;99.90;;;;;;5005140;28;20277;-75
2021/11/25 01:05:22;;;;;;;4.80;4.50;;;7.10;99.90;;;;;;5005386;28;20241;-75
2021/11/25 01:07:49;;;;;;;5.33;4.90;;;7.10;99.90;;;;;;5005092;28;20229;-75
2021/11/25 01:10:21;;;;;;;5.17;4.70;;;7.00;99.90;;;;;;5004883;28;20301;-75
2021/11/25 01:12:48;;;;;;;4.47;4.07;;;7.00;99.90;;;;;;5005123;28;20233;-75
2021/11/25 01:15:17;;;;;;;4.27;3.87;;;7.00;99.90;;;;;;5004988;28;20300;-75
2021/11/25 01:17:45;;;;;;;4.87;4.47;;;7.00;99.90;;;;;;5005244;28;20237;-75
2021/11/25 01:20:15;;;;;;;3.93;3.63;;;7.00;99.90;;;;;;5005055;28;20241;-75
2021/11/25 01:22:44;;;;;;;4.13;3.83;;;7.10;99.90;;;;;;5004686;28;20798;-75
2021/11/25 01:25:11;;;;;;;4.37;3.97;;;7.10;99.90;;;;;;5005307;28;20614;-75
2021/11/25 01:27:38;;;;;;;5.03;3.90;;;7.10;99.90;;;;;;5005076;28;20300;-75
2021/11/25 01:30:07;;;;;;;3.97;3.67;;;7.10;99.90;;;;;;5005158;28;20279;-75
2021/11/25 01:32:34;;;;;;;4.10;3.70;;;7.10;99.90;;;;;;5004848;28;20258;-74
2021/11/25 01:35:01;;;;;;;3.93;3.70;;;7.10;99.90;;;;;;5005299;28;20297;-75
2021/11/25 01:37:28;;;;;;;3.70;3.40;;;7.10;99.90;;;;;;5005089;28;20205;-75
2021/11/25 01:39:57;;;;;;;4.20;3.90;;;7.10;99.90;;;;;;5004858;28;20296;-75
2021/11/25 01:42:24;;;;;;;4.13;3.83;;;7.10;99.90;;;;;;5004396;28;20703;-75
2021/11/25 01:44:51;;;;;;;3.90;3.60;;;7.10;99.90;;;;;;5005008;28;20237;-75
2021/11/25 01:47:18;;;;;;;4.60;4.20;;;7.10;99.90;;;;;;5005111;28;20645;-75
2021/11/25 01:49:45;;;;;;;4.40;4.00;;;7.10;99.90;;;;;;5005062;28;20210;-74
2021/11/25 01:52:12;;;;;;;3.80;3.50;;;7.10;99.90;;;;;;5004564;28;20655;-75
2021/11/25 01:54:39;;;;;;;3.67;3.37;;;7.10;99.90;;;;;;5004794;28;20214;-75
2021/11/25 01:57:08;;;;;;;5.27;3.60;;;7.10;99.90;;;;;;5008054;28;20206;-75
2021/11/25 01:59:37;;;;;;;4.23;3.93;;;7.10;99.90;;;;;;5007932;28;20252;-75
2021/11/25 02:02:04;;;;;;;4.17;3.87;;;7.10;99.90;;;;;;5007918;28;20352;-75
2021/11/25 02:04:31;;;;;;;3.63;3.33;;;7.10;99.90;;;;;;5007953;28;20321;-75
2021/11/25 02:06:58;;;;;;;4.43;3.50;;;7.10;99.90;;;;;;5008025;28;20307;-75
2021/11/25 02:09:25;;;;;;;3.83;3.53;;;7.00;99.90;;;;;;5007908;28;20244;-76
2021/11/25 02:11:52;;;;;;;3.57;3.37;;;7.00;99.90;;;;;;5008039;28;20243;-76
2021/11/25 02:14:20;;;;;;;4.10;3.80;;;7.00;99.90;;;;;;5007523;28;20245;-76
2021/11/25 02:16:49;;;;;;;4.10;3.80;;;7.00;99.90;;;;;;5007585;28;20292;-76
2021/11/25 02:19:17;;;;;;;4.20;3.90;;;7.00;99.90;;;;;;5007754;28;20297;-76
2021/11/25 02:21:46;;;;;;;3.83;3.53;;;7.00;99.90;;;;;;5007787;28;20206;-76
2021/11/25 02:24:13;;;;;;;4.20;3.87;;;7.00;99.90;;;;;;5007549;28;20262;-75
2021/11/25 02:26:40;;;;;;;3.87;3.63;;;7.00;99.90;;;;;;5007648;28;20248;-76
2021/11/25 02:29:07;;;;;;;4.17;3.87;;;7.00;99.90;;;;;;5007548;28;20268;-76
2021/11/25 02:31:34;;;;;;;4.03;3.83;;;7.00;99.90;;;;;;5007408;28;20237;-75
2021/11/25 02:34:01;;;;;;;4.40;4.10;;;7.00;99.90;;;;;;5007206;28;20263;-76
2021/11/25 02:36:28;;;;;;;4.63;4.17;;;7.00;99.90;;;;;;5007226;28;20212;-76
2021/11/25 02:38:56;;;;;;;4.43;3.93;;;7.00;99.90;;;;;;5007428;28;20298;-75
2021/11/25 02:41:23;;;;;;;4.33;3.93;;;7.00;99.90;;;;;;5007519;28;20353;-76
2021/11/25 02:43:53;;;;;;;3.93;3.73;;;7.00;99.90;;;;;;5007466;28;20324;-74
2021/11/25 02:46:20;;;;;;;4.40;4.10;;;6.90;99.90;;;;;;5007027;28;20266;-74
2021/11/25 02:48:49;;;;;;;4.80;4.40;;;6.90;99.90;;;;;;5006790;28;20215;-74
2021/11/25 02:51:19;;;;;;;5.03;4.73;;;6.90;99.90;;;;;;5007050;28;20267;-74
2021/11/25 02:53:47;;;;;;;4.80;4.40;;;6.90;99.90;;;;;;5007207;28;20288;-74
2021/11/25 02:56:17;;;;;;;4.70;4.40;;;6.90;99.90;;;;;;5006743;28;20723;-74
2021/11/25 02:58:45;;;;;;;6.03;5.60;;;6.90;99.90;;;;;;5007150;28;20237;-74
2021/11/25 03:01:15;;;;;;;6.07;5.57;;;6.90;99.90;;;;;;5006510;28;20727;-74
2021/11/25 03:03:42;;;;;;;6.43;5.97;;;6.90;99.90;;;;;;5006804;28;20278;-76
2021/11/25 03:06:09;;;;;;;6.60;6.10;;;6.80;99.90;;;;;;5006897;28;20337;-75
2021/11/25 03:08:37;;;;;;;7.23;6.63;;;6.80;99.90;;;;;;5006038;28;20275;-75
2021/11/25 03:11:06;;;;;;;6.33;5.93;;;6.80;99.90;;;;;;5007144;28;20237;-75
2021/11/25 03:13:36;;;;;;;7.20;6.60;;;6.70;99.90;;;;;;5006586;28;20694;-76
2021/11/25 03:16:03;;;;;;;7.10;6.57;;;6.70;99.90;;;;;;5006913;28;20292;-76
2021/11/25 03:18:30;;;;;;;8.27;7.13;;;6.70;99.90;;;;;;5006919;28;20201;-75
2021/11/25 03:20:59;;;;;;;7.23;6.63;;;6.70;99.90;;;;;;5006542;28;20297;-76
2021/11/25 03:23:28;;;;;;;7.27;6.67;;;6.70;99.90;;;;;;5006886;28;20279;-76
2021/11/25 03:25:55;;;;;;;7.63;7.03;;;6.60;99.90;;;;;;5006840;28;20245;-77
2021/11/25 03:28:22;;;;;;;7.33;6.73;;;6.60;99.90;;;;;;5006525;28;20251;-76
2021/11/25 03:30:55;;;;;;;7.87;7.17;;;6.70;99.90;;;;;;5006564;28;20264;-75
2021/11/25 03:33:23;;;;;;;8.00;7.30;;;6.60;99.90;;;;;;5006801;28;20238;-74
2021/11/25 03:35:50;;;;;;;7.53;6.90;;;6.60;99.90;;;;;;5010716;28;20236;-74
2021/11/25 03:38:17;;;;;;;8.10;7.50;;;6.60;99.90;;;;;;5022609;28;20641;-74
2021/11/25 03:40:45;;;;;;;8.27;7.67;;;6.60;99.90;;;;;;5022821;28;20292;-74
2021/11/25 03:43:12;;;;;;;8.23;7.53;;;6.60;99.90;;;;;;5022136;28;20272;-74
2021/11/25 03:45:40;;;;;;;9.23;8.43;;;6.60;99.90;;;;;;5022017;28;20323;-74
2021/11/25 03:48:09;;;;;;;8.47;7.77;;;6.60;99.90;;;;;;5022397;28;20679;-74
2021/11/25 03:50:36;;;;;;;8.83;8.03;;;6.60;99.90;;;;;;5022197;28;20312;-74
2021/11/25 03:53:03;;;;;;;9.47;8.67;;;6.50;99.90;;;;;;5022183;28;20299;-75
2021/11/25 03:55:30;;;;;;;8.90;8.20;;;6.50;99.90;;;;;;5022055;28;20212;-74
2021/11/25 03:57:58;;;;;;;9.00;8.30;;;6.60;99.90;;;;;;5022097;28;20211;-74
2021/11/25 04:00:27;;;;;;;9.73;8.93;;;6.60;99.90;;;;;;5021701;28;20656;-74
2021/11/25 04:02:54;;;;;;;9.30;8.57;;;6.50;99.90;;;;;;5021641;28;20738;-74
2021/11/25 04:05:23;;;;;;;9.67;8.87;;;6.50;99.90;;;;;;5022051;28;20331;-71
2021/11/25 04:07:50;;;;;;;9.63;8.80;;;6.50;99.90;;;;;;5020375;28;20645;-74
2021/11/25 04:10:18;;;;;;;9.97;9.10;;;6.50;99.90;;;;;;5021622;28;20605;-73
2021/11/25 04:12:46;;;;;;;11.40;10.20;;;6.50;99.90;;;;;;5012989;28;20519;-74
2021/11/25 04:15:15;;;;;;;9.97;9.07;;;6.40;99.90;;;;;;5016237;28;20277;-74
2021/11/25 04:17:42;;;;;;;10.40;9.43;;;6.40;99.90;;;;;;5025014;28;20240;-73
2021/11/25 04:20:11;;;;;;;11.20;10.20;;;6.50;99.90;;;;;;5024960;28;20251;-73
2021/11/25 04:22:39;;;;;;;11.07;9.97;;;6.40;99.90;;;;;;5023958;28;20769;-73
2021/11/25 04:25:08;;;;;;;11.17;10.07;;;6.40;99.90;;;;;;5025301;28;20295;-73
2021/11/25 04:27:35;;;;;;;12.10;10.90;;;6.40;99.90;;;;;;5024798;28;20867;-73
2021/11/25 04:30:07;;;;;;;11.70;10.60;;;6.40;99.90;;;;;;5024926;28;20780;-73
2021/11/25 04:35:32;;;;;;;12.40;11.10;;;6.40;99.90;;;;;;4986640;28;20238;-73
2021/11/25 04:38:03;;;;;;;12.27;11.10;;;6.40;99.90;;;;;;5025397;28;20196;-73
2021/11/25 04:40:33;;;;;;;11.47;10.37;;;6.40;99.90;;;;;;5025444;28;20221;-73
2021/11/25 04:43:00;;;;;;;13.40;12.03;;;6.40;99.90;;;;;;5025136;28;20401;-73
2021/11/25 04:45:27;;;;;;;12.57;11.37;;;6.30;99.90;;;;;;5025076;28;20232;-73
2021/11/25 04:47:54;;;;;;;13.40;12.00;;;6.30;99.90;;;;;;5025342;28;20251;-73
2021/11/25 04:50:21;;;;;;;13.43;11.90;;;6.30;99.90;;;;;;5025020;28;20256;-73
2021/11/25 04:52:49;;;;;;;14.37;12.27;;;6.30;99.90;;;;;;5024935;28;20304;-73
2021/11/25 04:55:18;;;;;;;13.90;12.60;;;6.30;99.90;;;;;;5024773;28;20209;-73
2021/11/25 04:57:45;;;;;;;12.80;11.47;;;6.30;99.90;;;;;;5025239;28;20309;-73
2021/11/25 05:00:14;;;;;;;13.30;11.90;;;6.30;99.90;;;;;;5024892;28;20208;-73
2021/11/25 05:02:41;;;;;;;14.23;12.57;;;6.30;99.90;;;;;;5024372;28;20309;-73
2021/11/25 05:05:08;;;;;;;13.57;12.27;;;6.30;99.90;;;;;;5024835;28;20663;-73
2021/11/25 05:07:35;;;;;;;13.30;12.00;;;6.30;99.90;;;;;;5024552;28;20233;-73
2021/11/25 05:10:03;;;;;;;14.17;12.70;;;6.30;99.90;;;;;;5025087;28;20669;-73
2021/11/25 05:12:32;;;;;;;14.03;12.73;;;6.30;99.90;;;;;;5024567;28;20200;-73
2021/11/25 05:14:59;;;;;;;14.27;12.77;;;6.30;99.90;;;;;;5025013;28;20255;-73
2021/11/25 05:17:26;;;;;;;13.50;12.10;;;6.20;99.90;;;;;;5024534;28;20677;-73
2021/11/25 05:19:53;;;;;;;14.27;12.80;;;6.20;99.90;;;;;;5024851;28;20283;-73
2021/11/25 05:22:20;;;;;;;14.97;13.47;;;6.20;99.90;;;;;;5024844;28;20294;-73
2021/11/25 05:24:47;;;;;;;14.50;12.97;;;6.20;99.90;;;;;;5024493;28;20331;-73
2021/11/25 05:27:14;;;;;;;14.43;12.93;;;6.30;99.90;;;;;;5024683;28;20208;-73
2021/11/25 05:29:42;;;;;;;13.97;12.57;;;6.30;99.90;;;;;;5024473;28;20736;-73
2021/11/25 05:32:13;;;;;;;14.47;12.97;;;6.20;99.90;;;;;;5028136;28;20685;-73
2021/11/25 05:34:40;;;;;;;13.77;12.37;;;6.20;99.90;;;;;;5027844;28;20242;-73
2021/11/25 05:37:07;;;;;;;14.87;13.37;;;6.20;99.90;;;;;;5028019;28;20248;-73
2021/11/25 05:39:34;;;;;;;16.10;13.47;;;6.20;99.90;;;;;;5027931;28;20248;-73
2021/11/25 05:42:01;;;;;;;14.40;12.93;;;6.20;99.90;;;;;;5027554;28;20263;-73
2021/11/25 05:44:27;;;;;;;15.70;13.07;;;6.20;99.90;;;;;;5027488;28;20228;-73
2021/11/25 05:46:56;;;;;;;18.57;13.97;;;6.20;99.90;;;;;;5027337;28;20755;-73
2021/11/25 05:49:23;;;;;;;14.83;13.43;;;6.20;99.90;;;;;;5027318;28;20769;-73
2021/11/25 05:51:50;;;;;;;15.07;13.57;;;6.20;99.90;;;;;;5027315;28;20249;-73
2021/11/25 05:54:16;;;;;;;15.63;13.27;;;6.20;99.90;;;;;;5027316;28;20213;-73
2021/11/25 05:56:43;;;;;;;15.57;13.97;;;6.20;99.90;;;;;;5027693;28;20464;-73
2021/11/25 05:59:10;;;;;;;15.57;14.07;;;6.20;99.90;;;;;;5027629;28;20239;-73
2021/11/25 06:01:37;;;;;;;14.07;12.70;;;6.20;99.90;;;;;;5027398;28;20237;-73
2021/11/25 06:04:06;;;;;;;14.60;13.07;;;6.20;99.90;;;;;;5027689;28;20315;-73
2021/11/25 06:06:33;;;;;;;13.80;12.40;;;6.20;99.90;;;;;;5027452;28;20228;-73
2021/11/25 06:09:00;;;;;;;15.17;13.67;;;6.20;99.90;;;;;;5026191;28;20251;-73
2021/11/25 06:11:28;;;;;;;15.37;13.77;;;6.20;99.90;;;;;;5027646;28;20301;-73
2021/11/25 06:13:55;;;;;;;14.40;13.00;;;6.20;99.90;;;;;;5027369;28;20678;-73
2021/11/25 06:16:22;;;;;;;14.37;12.87;;;6.20;99.90;;;;;;5015423;28;20209;-73
2021/11/25 06:18:49;;;;;;;15.13;13.53;;;6.20;99.90;;;;;;5007278;28;20657;-73
2021/11/25 06:21:17;;;;;;;15.53;13.60;;;6.20;99.90;;;;;;5007448;28;20586;-73
2021/11/25 06:23:45;;;;;;;14.20;12.80;;;6.20;99.90;;;;;;5007354;28;20771;-73
2021/11/25 06:26:12;;;;;;;15.40;12.90;;;6.20;99.90;;;;;;5007067;28;20699;-73
2021/11/25 06:28:39;;;;;;;16.73;13.47;;;6.20;99.90;;;;;;5007390;28;20300;-73
2021/11/25 06:31:06;;;;;;;14.00;12.53;;;6.10;99.90;;;;;;5007145;28;20261;-73
2021/11/25 06:33:33;;;;;;;15.17;13.50;;;6.10;99.90;;;;;;5007302;28;20293;-73
2021/11/25 06:36:00;;;;;;;14.27;12.87;;;6.10;99.90;;;;;;5007163;28;20299;-73
2021/11/25 06:38:29;;;;;;;14.67;13.17;;;6.10;99.90;;;;;;5006977;28;20627;-73
2021/11/25 06:40:56;;;;;;;14.00;12.60;;;6.10;99.90;;;;;;5006896;28;20293;-73
2021/11/25 06:43:24;;;;;;;13.90;12.50;;;6.00;99.90;;;;;;5006211;28;20313;-73
2021/11/25 06:45:51;;;;;;;15.07;13.47;;;6.10;99.90;;;;;;5007172;28;20688;-73
2021/11/25 06:48:18;;;;;;;14.60;13.20;;;6.10;99.90;;;;;;5006828;28;20209;-73
2021/11/25 06:50:45;;;;;;;14.43;12.93;;;6.10;99.90;;;;;;5007100;28;20628;-73
2021/11/25 06:53:12;;;;;;;15.10;13.50;;;6.10;99.90;;;;;;5006420;28;20658;-73
2021/11/25 06:55:40;;;;;;;14.83;13.10;;;6.00;99.90;;;;;;5006621;28;20252;-73
2021/11/25 06:58:07;;;;;;;14.17;12.77;;;6.00;99.90;;;;;;5006535;28;20252;-73
2021/11/25 07:00:34;;;;;;;13.70;12.30;;;6.00;99.90;;;;;;5006573;28;20237;-73
2021/11/25 07:03:01;;;;;;;14.50;12.43;;;6.10;99.90;;;;;;5006295;28;20234;-73
2021/11/25 07:05:29;;;;;;;13.80;12.47;;;6.10;99.90;;;;;;5006585;28;20321;-73
2021/11/25 07:07:56;;;;;;;14.43;13.03;;;6.00;99.90;;;;;;5006310;28;20264;-73
2021/11/25 07:10:24;;;;;;;13.30;11.80;;;6.00;99.90;;;;;;5006558;28;20202;-73
2021/11/25 07:12:52;;;;;;;14.63;12.93;;;6.00;99.90;;;;;;5006729;28;20298;-73
2021/11/25 07:15:23;;;;;;;14.27;12.77;;;6.00;99.90;;;;;;5006217;28;20300;-73
2021/11/25 07:17:51;;;;;;;15.77;12.33;;;6.00;99.90;;;;;;5006442;28;20233;-73
2021/11/25 07:20:18;;;;;;;13.77;12.27;;;6.00;99.90;;;;;;5006283;28;20240;-73
2021/11/25 07:22:46;;;;;;;14.83;12.90;;;6.10;99.90;;;;;;5006455;28;20233;-73
2021/11/25 07:25:15;;;;;;;14.57;13.07;;;6.00;99.90;;;;;;5005969;28;20328;-73
2021/11/25 07:27:43;;;;;;;14.90;13.30;;;6.00;99.90;;;;;;5006444;28;20265;-73
2021/11/25 07:30:14;;;;;;;14.67;12.77;;;6.00;99.90;;;;;;5006091;28;20212;-73
2021/11/25 07:32:41;;;;;;;16.20;13.53;;;6.00;99.90;;;;;;5006207;28;20272;-73
2021/11/25 07:35:09;;;;;;;14.73;13.13;;;6.00;99.90;;;;;;5005691;28;20687;-73
2021/11/25 07:37:36;;;;;;;14.97;13.47;;;6.00;99.90;;;;;;5006455;28;20213;-73
2021/11/25 07:40:05;;;;;;;14.10;12.73;;;6.00;99.90;;;;;;5006879;28;20293;-73
2021/11/25 07:42:31;;;;;;;15.13;13.03;;;6.00;99.90;;;;;;5006194;28;20292;-73
2021/11/25 07:44:58;;;;;;;14.50;13.00;;;6.00;99.90;;;;;;5006484;28;20332;-73
2021/11/25 07:47:32;;;;;;;14.67;13.17;;;6.00;99.90;;;;;;5006000;28;20263;-73
2021/11/25 07:50:00;;;;;;;14.80;13.23;;;6.00;99.90;;;;;;5006474;28;20222;-73
2021/11/25 07:52:27;;;;;;;14.07;12.57;;;6.00;99.90;;;;;;5005660;28;20296;-73
2021/11/25 07:54:54;;;;;;;14.47;13.00;;;6.00;99.90;;;;;;5005669;28;20707;-73
2021/11/25 07:57:21;;;;;;;16.73;13.77;;;6.00;99.90;;;;;;5005813;28;20296;-73
2021/11/25 07:59:48;;;;;;;14.90;13.40;;;6.00;99.90;;;;;;5006200;28;20631;-73
2021/11/25 08:02:16;;;;;;;15.37;13.70;;;6.00;99.90;;;;;;5005611;28;20337;-73
2021/11/25 08:04:45;;;;;;;14.17;12.67;;;6.00;99.90;;;;;;5005895;28;20261;-73
2021/11/25 08:07:12;;;;;;;14.67;13.17;;;5.80;99.90;;;;;;5005541;28;20253;-73
2021/11/25 08:09:39;;;;;;;13.90;12.50;;;5.80;99.90;;;;;;5006153;28;20300;-73
2021/11/25 08:12:06;;;;;;;13.87;12.23;;;5.80;99.90;;;;;;5005949;28;20316;-73
2021/11/25 08:14:33;;;;;;;14.93;13.13;;;5.80;99.90;;;;;;5005970;28;20561;-73
2021/11/25 08:17:00;;;;;;;15.30;13.30;;;5.70;99.90;;;;;;5005966;28;20573;-73
2021/11/25 08:19:28;;;;;;;13.70;12.27;;;5.70;99.90;;;;;;5005551;28;20767;-73
2021/11/25 08:21:57;;;;;;;14.93;12.70;;;5.80;99.90;;;;;;5005957;28;20297;-73
2021/11/25 08:24:25;;;;;;;16.53;13.53;;;5.80;99.90;;;;;;5005537;28;20233;-73
2021/11/25 08:26:52;;;;;;;15.43;13.83;;;5.80;99.90;;;;;;5005636;28;20208;-73
2021/11/25 08:29:19;;;;;;;16.00;14.30;;;5.50;99.90;;;;;;5005583;28;20655;-73
2021/11/25 08:31:46;;;;;;;17.73;14.60;;;5.50;99.90;;;;;;5005552;28;20309;-73
2021/11/25 08:34:13;;;;;;;16.57;14.27;;;5.50;99.90;;;;;;5005440;28;20315;-73
2021/11/25 08:36:40;;;;;;;16.00;14.20;;;5.50;99.90;;;;;;5005361;28;20296;-73
2021/11/25 08:39:08;;;;;;;15.77;14.10;;;5.40;99.90;;;;;;5005610;28;20253;-73
2021/11/25 08:41:35;;;;;;;15.87;14.07;;;5.30;99.90;;;;;;5005578;28;20300;-73
2021/11/25 08:44:02;;;;;;;16.50;14.60;;;5.00;99.90;;;;;;5005411;28;20702;-73
2021/11/25 08:46:29;;;;;;;17.53;14.90;;;5.00;99.90;;;;;;5005223;28;20698;-73
2021/11/25 08:48:56;;;;;;;18.77;15.43;;;5.00;99.90;;;;;;5005549;28;20262;-73
2021/11/25 08:51:24;;;;;;;16.03;13.47;;;5.10;99.90;;;;;;5005154;28;20205;-73
2021/11/25 08:53:51;;;;;;;17.00;14.43;;;5.20;99.90;;;;;;5005641;28;20661;-73
2021/11/25 08:56:19;;;;;;;16.03;14.17;;;5.30;99.90;;;;;;5005255;28;20248;-73
2021/11/25 08:58:50;;;;;;;16.63;14.93;;;5.30;99.90;;;;;;5005117;28;20293;-73
2021/11/25 09:01:17;;;;;;;16.27;14.57;;;5.30;99.90;;;;;;5005162;28;20246;-73
2021/11/25 09:03:44;;;;;;;18.27;15.40;;;5.30;99.90;;;;;;5005363;28;20274;-73
2021/11/25 09:06:11;;;;;;;16.93;14.10;;;5.30;99.90;;;;;;5006733;28;20802;-73
2021/11/25 09:08:38;;;;;;;16.80;14.77;;;5.50;99.90;;;;;;5008988;28;20247;-73
2021/11/25 09:11:05;;;;;;;15.27;13.70;;;5.50;99.90;;;;;;5009054;28;20262;-73
2021/11/25 09:13:34;;;;;;;17.40;14.20;;;5.50;99.90;;;;;;5008443;28;20248;-73
2021/11/25 09:16:01;;;;;;;15.80;14.10;;;5.60;99.90;;;;;;5008784;28;20248;-73
2021/11/25 09:18:28;;;;;;;16.53;14.73;;;5.40;99.90;;;;;;5008297;28;20683;-73
2021/11/25 09:20:55;;;;;;;15.53;13.83;;;5.40;99.90;;;;;;5008639;28;20237;-73
2021/11/25 09:23:22;;;;;;;16.73;14.70;;;5.40;99.90;;;;;;5008520;28;20240;-73
2021/11/25 09:25:50;;;;;;;15.57;13.97;;;5.40;99.90;;;;;;5008421;28;20320;-73
2021/11/25 09:28:20;;;;;;;15.40;13.87;;;5.40;99.90;;;;;;5008196;28;20228;-73
2021/11/25 09:30:50;;;;;;;17.10;13.60;;;5.50;99.90;;;;;;5008206;28;20229;-73
2021/11/25 09:33:17;;;;;;;16.43;13.83;;;5.60;99.90;;;;;;5007937;28;20245;-73
2021/11/25 09:35:44;;;;;;;15.37;13.77;;;5.50;99.90;;;;;;5008086;28;20326;-73
2021/11/25 09:38:13;;;;;;;15.50;13.83;;;5.60;99.90;;;;;;5008176;28;20309;-73
2021/11/25 09:40:43;;;;;;;15.03;13.43;;;5.70;99.90;;;;;;5008307;28;20236;-73
2021/11/25 09:43:13;;;;;;;16.33;14.30;;;5.70;99.90;;;;;;5008128;28;20210;-73
2021/11/25 09:45:43;;;;;;;15.33;13.80;;;5.70;99.90;;;;;;5008447;28;20245;-73
2021/11/25 09:48:13;;;;;;;16.00;14.33;;;5.70;99.90;;;;;;5007611;28;20202;-73
2021/11/25 09:50:44;;;;;;;17.17;14.47;;;5.70;99.90;;;;;;5007809;28;20263;-73
2021/11/25 09:53:13;;;;;;;17.00;14.50;;;5.40;99.90;;;;;;5008220;28;20260;-73
2021/11/25 09:55:42;;;;;;;18.23;14.73;;;5.40;99.90;;;;;;5007838;28;20248;-73
2021/11/25 09:58:12;;;;;;;16.27;14.57;;;5.30;99.90;;;;;;5007987;28;20259;-73
2021/11/25 10:00:40;;;;;;;16.10;14.50;;;5.30;99.90;;;;;;5007918;28;20216;-73
2021/11/25 10:03:08;;;;;;;15.47;13.80;;;5.40;99.90;;;;;;5007673;28;20265;-74
2021/11/25 10:05:36;;;;;;;14.83;13.00;;;5.50;99.90;;;;;;5007482;28;20295;-73
2021/11/25 10:08:22;;;;;;;13.90;12.50;;;5.50;99.90;;;;;;5007517;28;20205;-73
2021/11/25 10:10:58;;;;;;;14.20;12.80;;;5.60;99.90;;;;;;5007886;28;20198;-74
2021/11/25 10:13:33;;;;;;;14.80;13.03;;;5.60;99.90;;;;;;5007344;28;20225;-73
2021/11/25 10:16:00;;;;;;;14.77;13.27;;;5.70;99.90;;;;;;5007567;28;20272;-73
2021/11/25 10:18:34;;;;;;;14.77;13.27;;;5.50;99.90;;;;;;5007283;28;20305;-73
2021/11/25 10:21:06;;;;;;;15.17;13.57;;;5.50;99.90;;;;;;5007848;28;20200;-73
2021/11/25 10:23:33;;;;;;;14.93;13.33;;;5.60;99.90;;;;;;5007534;28;20288;-73
2021/11/25 10:26:02;;;;;;;14.23;12.73;;;5.70;99.90;;;;;;5007031;28;20276;-73
2021/11/25 10:28:36;;;;;;;15.50;13.90;;;5.80;99.90;;;;;;5006894;28;20312;-73
2021/11/25 10:31:07;;;;;;;13.97;12.57;;;5.80;99.90;;;;;;5007047;28;20255;-73
2021/11/25 10:33:40;;;;;;;14.37;12.37;;;5.80;99.90;;;;;;5007418;28;20201;-73
2021/11/25 10:39:09;;;;;;;16.47;12.90;;;5.70;99.90;;;;;;5007514;28;20664;-73
2021/11/25 10:41:39;;;;;;;15.23;13.77;;;5.80;99.90;;;;;;5007004;28;20657;-73
2021/11/25 10:44:15;;;;;;;14.80;13.23;;;5.80;99.90;;;;;;5006949;28;20652;-73
2021/11/25 10:46:46;;;;;;;14.63;13.13;;;5.80;99.90;;;;;;5007057;28;20682;-73
2021/11/25 10:49:14;;;;;;;14.90;13.30;;;5.60;99.90;;;;;;5007248;28;20225;-73
2021/11/25 10:51:45;;;;;;;14.77;13.27;;;5.60;99.90;;;;;;5007222;28;20269;-73
2021/11/25 10:54:14;;;;;;;16.00;14.30;;;5.50;99.90;;;;;;5007270;28;20198;-73
2021/11/25 10:56:44;;;;;;;16.47;13.53;;;5.60;99.90;;;;;;5007201;28;20214;-73
2021/11/25 10:59:14;;;;;;;16.90;13.77;;;5.50;99.90;;;;;;5006777;28;20817;-73
2021/11/25 11:01:43;;;;;;;16.37;14.00;;;5.40;99.90;;;;;;5006865;28;20272;-73
2021/11/25 11:04:11;;;;;;;15.43;13.83;;;5.40;99.90;;;;;;5006730;28;20304;-73
2021/11/25 11:06:40;;;;;;;15.20;13.43;;;5.60;99.90;;;;;;5006696;28;20671;-73
2021/11/25 11:09:28;;;;;;;16.73;14.43;;;5.60;99.90;;;;;;5006563;28;20216;-73
2021/11/25 11:12:17;;;;;;;16.93;14.90;;;5.60;99.90;;;;;;5007159;28;20194;-73
2021/11/25 11:14:49;;;;;;;15.70;13.93;;;5.50;99.90;;;;;;5006639;28;20193;-72
2021/11/25 11:17:25;;;;;;;17.00;14.40;;;5.50;99.90;;;;;;5006983;28;20283;-73
2021/11/25 11:20:11;;;;;;;16.70;14.90;;;5.50;99.90;;;;;;5006900;28;20193;-73
2021/11/25 11:22:38;;;;;;;19.40;14.77;;;5.60;99.90;;;;;;5006640;28;20197;-73
2021/11/25 11:25:09;;;;;;;18.23;15.33;;;5.60;99.90;;;;;;5006722;28;20264;-73
2021/11/25 11:27:36;;;;;;;19.13;15.80;;;5.60;99.90;;;;;;5005611;28;20229;-73
2021/11/25 11:30:05;;;;;;;17.53;15.63;;;5.60;99.90;;;;;;5006516;28;20261;-73
2021/11/25 11:32:33;;;;;;;21.23;15.93;;;5.60;99.90;;;;;;5006294;28;20209;-73
2021/11/25 11:35:00;;;;;;;17.87;15.97;;;5.50;99.90;;;;;;5006045;28;20225;-73
2021/11/25 11:37:28;;;;;;;18.13;15.70;;;5.50;99.90;;;;;;5006210;28;20300;-72
2021/11/25 11:39:55;;;;;;;18.33;15.60;;;5.40;99.90;;;;;;5006339;28;20733;-72
2021/11/25 11:42:25;;;;;;;19.33;16.23;;;5.30;99.90;;;;;;5006286;28;20241;-72
2021/11/25 11:44:54;;;;;;;18.73;16.10;;;5.20;99.90;;;;;;5006285;28;20198;-73
2021/11/25 11:47:24;;;;;;;18.13;14.90;;;5.30;99.90;;;;;;5006582;28;20212;-72
2021/11/25 11:49:51;;;;;;;21.00;16.67;;;5.30;99.90;;;;;;5006125;28;20228;-73
2021/11/25 11:52:21;;;;;;;17.47;15.17;;;5.40;99.90;;;;;;5006085;28;20316;-72
2021/11/25 11:54:49;;;;;;;19.60;16.90;;;5.20;99.90;;;;;;5006371;28;20219;-72
2021/11/25 11:57:38;;;;;;;19.23;16.33;;;5.20;99.90;;;;;;5005974;28;20241;-72
2021/11/25 12:00:29;;;;;;;17.77;15.60;;;5.30;99.90;;;;;;5006179;28;20201;-73
2021/11/25 12:02:58;;;;;;;18.33;15.70;;;5.30;99.90;;;;;;5005626;28;20255;-72
2021/11/25 12:05:47;;;;;;;21.33;16.07;;;5.30;99.90;;;;;;5005694;28;20328;-73
2021/11/25 12:08:39;;;;;;;19.93;16.50;;;5.30;99.90;;;;;;5005879;28;20202;-73
2021/11/25 12:11:07;;;;;;;16.90;15.10;;;5.30;99.90;;;;;;5006071;28;20571;-73
2021/11/25 12:14:16;;;;;;;17.13;15.30;;;5.30;99.90;;;;;;5005912;28;20296;-73
2021/11/25 12:16:49;;;;;;;19.23;16.13;;;5.30;99.90;;;;;;5006172;28;20643;-73
2021/11/25 12:19:24;;;;;;;20.23;16.33;;;5.40;99.90;;;;;;5005781;28;20224;-73
2021/11/25 12:21:54;;;;;;;18.37;15.07;;;5.50;99.90;;;;;;5005805;28;20196;-73
2021/11/25 12:24:26;;;;;;;17.00;14.70;;;5.50;99.90;;;;;;5005514;28;20201;-73
2021/11/25 12:27:13;;;;;;;17.30;14.53;;;5.50;99.90;;;;;;5005771;28;20241;-73
2021/11/25 12:29:49;;;;;;;17.60;15.40;;;5.50;99.90;;;;;;5005621;28;20707;-73
2021/11/25 12:32:29;;;;;;;17.13;15.17;;;5.60;99.90;;;;;;5005808;28;20695;-73
2021/11/25 12:34:58;;;;;;;17.80;14.93;;;5.60;99.90;;;;;;5005691;28;20232;-73
2021/11/25 12:37:55;;;;;;;16.77;14.90;;;5.50;99.90;;;;;;5005395;28;20206;-73
2021/11/25 12:40:44;;;;;;;18.30;15.27;;;5.50;99.90;;;;;;5005551;28;20194;-73
2021/11/25 12:43:12;;;;;;;17.60;15.70;;;5.50;99.90;;;;;;5005691;28;20296;-73
2021/11/25 12:45:42;;;;;;;20.30;16.13;;;5.40;99.90;;;;;;5005584;28;20319;-73
2021/11/25 12:48:31;;;;;;;18.37;16.47;;;5.40;99.90;;;;;;5005819;28;20311;-73
2021/11/25 12:51:04;;;;;;;20.30;16.40;;;5.30;99.90;;;;;;5005576;28;20720;-73
2021/11/25 12:53:33;;;;;;;19.87;16.33;;;5.20;99.90;;;;;;5005584;28;20202;-73
2021/11/25 12:56:13;;;;;;;18.80;16.80;;;5.20;99.90;;;;;;5005562;28;20248;-73
2021/11/25 12:58:47;;;;;;;18.60;14.90;;;5.30;99.90;;;;;;5005219;28;20621;-73